sensor_id;sensor_type;location;lat;lon;timestamp;P1;durP1;ratioP1;P2;durP2;ratioP2
781;SDS011;374;52.568;13.402;2022-12-11T00:00:23;17.60;;;11.43;;
781;SDS011;374;52.568;13.402;2022-12-11T00:05:44;16.07;;;10.60;;
781;SDS011;374;52.568;13.402;2022-12-11T00:08:19;17.40;;;12.80;;
781;SDS011;374;52.568;13.402;2022-12-11T00:11:10;21.73;;;13.13;;
781;SDS011;374;52.568;13.402;2022-12-11T00:16:32;20.30;;;12.10;;
781;SDS011;374;52.568;13.402;2022-12-11T00:19:06;18.87;;;12.27;;
781;SDS011;374;52.568;13.402;2022-12-11T00:21:39;18.80;;;12.00;;
781;SDS011;374;52.568;13.402;2022-12-11T00:24:05;16.53;;;11.80;;
781;SDS011;374;52.568;13.402;2022-12-11T00:26:31;15.33;;;11.30;;
781;SDS011;374;52.568;13.402;2022-12-11T00:32:17;22.03;;;13.93;;
781;SDS011;374;52.568;13.402;2022-12-11T00:34:42;17.23;;;11.63;;
781;SDS011;374;52.568;13.402;2022-12-11T00:37:08;20.30;;;13.40;;
781;SDS011;374;52.568;13.402;2022-12-11T00:39:34;18.17;;;13.07;;
781;SDS011;374;52.568;13.402;2022-12-11T00:42:01;20.87;;;13.37;;
781;SDS011;374;52.568;13.402;2022-12-11T00:44:26;17.23;;;12.70;;
781;SDS011;374;52.568;13.402;2022-12-11T00:46:52;17.47;;;12.77;;
781;SDS011;374;52.568;13.402;2022-12-11T00:49:17;14.70;;;10.67;;
781;SDS011;374;52.568;13.402;2022-12-11T00:52:04;17.00;;;11.60;;
781;SDS011;374;52.568;13.402;2022-12-11T00:54:41;15.80;;;11.67;;
781;SDS011;374;52.568;13.402;2022-12-11T00:57:07;22.97;;;13.23;;
781;SDS011;374;52.568;13.402;2022-12-11T00:59:34;17.30;;;12.00;;
781;SDS011;374;52.568;13.402;2022-12-11T01:02:02;21.00;;;12.63;;
781;SDS011;374;52.568;13.402;2022-12-11T01:04:38;18.23;;;11.27;;
781;SDS011;374;52.568;13.402;2022-12-11T01:07:04;20.33;;;13.73;;
781;SDS011;374;52.568;13.402;2022-12-11T01:09:29;19.63;;;13.00;;
781;SDS011;374;52.568;13.402;2022-12-11T01:12:14;18.00;;;11.50;;
781;SDS011;374;52.568;13.402;2022-12-11T01:14:39;22.43;;;13.27;;
781;SDS011;374;52.568;13.402;2022-12-11T01:17:08;18.87;;;12.77;;
781;SDS011;374;52.568;13.402;2022-12-11T01:19:34;21.57;;;13.20;;
781;SDS011;374;52.568;13.402;2022-12-11T01:22:01;16.30;;;12.23;;
781;SDS011;374;52.568;13.402;2022-12-11T01:24:27;16.90;;;12.13;;
781;SDS011;374;52.568;13.402;2022-12-11T01:26:59;19.50;;;12.93;;
781;SDS011;374;52.568;13.402;2022-12-11T01:29:26;17.87;;;11.90;;
781;SDS011;374;52.568;13.402;2022-12-11T01:31:52;22.97;;;12.00;;
781;SDS011;374;52.568;13.402;2022-12-11T01:34:17;17.20;;;11.43;;
781;SDS011;374;52.568;13.402;2022-12-11T01:36:45;18.67;;;12.90;;
781;SDS011;374;52.568;13.402;2022-12-11T01:39:11;21.03;;;13.47;;
781;SDS011;374;52.568;13.402;2022-12-11T01:41:37;25.20;;;15.63;;
781;SDS011;374;52.568;13.402;2022-12-11T01:46:40;19.80;;;13.47;;
781;SDS011;374;52.568;13.402;2022-12-11T01:49:16;24.83;;;15.70;;
781;SDS011;374;52.568;13.402;2022-12-11T01:51:49;22.97;;;14.87;;
781;SDS011;374;52.568;13.402;2022-12-11T01:54:23;19.73;;;13.43;;
781;SDS011;374;52.568;13.402;2022-12-11T01:56:51;20.87;;;14.27;;
781;SDS011;374;52.568;13.402;2022-12-11T01:59:20;18.47;;;13.20;;
781;SDS011;374;52.568;13.402;2022-12-11T02:01:50;22.67;;;13.20;;
781;SDS011;374;52.568;13.402;2022-12-11T02:04:27;21.87;;;13.83;;
781;SDS011;374;52.568;13.402;2022-12-11T02:06:53;20.73;;;14.20;;
781;SDS011;374;52.568;13.402;2022-12-11T02:09:21;26.00;;;15.07;;
781;SDS011;374;52.568;13.402;2022-12-11T02:11:52;23.17;;;14.17;;
781;SDS011;374;52.568;13.402;2022-12-11T02:14:38;21.30;;;14.43;;
781;SDS011;374;52.568;13.402;2022-12-11T02:25:55;17.20;;;12.30;;
781;SDS011;374;52.568;13.402;2022-12-11T02:28:28;19.17;;;13.00;;
781;SDS011;374;52.568;13.402;2022-12-11T02:31:11;19.83;;;14.10;;
781;SDS011;374;52.568;13.402;2022-12-11T02:34:01;17.80;;;11.80;;
781;SDS011;374;52.568;13.402;2022-12-11T02:36:38;20.03;;;13.13;;
781;SDS011;374;52.568;13.402;2022-12-11T02:39:08;18.80;;;11.77;;
781;SDS011;374;52.568;13.402;2022-12-11T02:41:36;16.93;;;11.90;;
781;SDS011;374;52.568;13.402;2022-12-11T02:44:04;18.27;;;12.17;;
781;SDS011;374;52.568;13.402;2022-12-11T02:46:34;18.90;;;12.50;;
781;SDS011;374;52.568;13.402;2022-12-11T02:49:01;19.00;;;14.10;;
781;SDS011;374;52.568;13.402;2022-12-11T02:51:29;23.03;;;12.80;;
781;SDS011;374;52.568;13.402;2022-12-11T02:54:00;21.37;;;13.90;;
781;SDS011;374;52.568;13.402;2022-12-11T02:56:37;23.53;;;13.30;;
781;SDS011;374;52.568;13.402;2022-12-11T02:59:33;23.83;;;13.47;;
781;SDS011;374;52.568;13.402;2022-12-11T03:02:02;20.90;;;14.03;;
781;SDS011;374;52.568;13.402;2022-12-11T03:04:28;20.60;;;13.30;;
781;SDS011;374;52.568;13.402;2022-12-11T03:06:55;20.73;;;13.63;;
781;SDS011;374;52.568;13.402;2022-12-11T03:09:26;18.37;;;13.07;;
781;SDS011;374;52.568;13.402;2022-12-11T03:11:52;24.07;;;14.20;;
781;SDS011;374;52.568;13.402;2022-12-11T03:14:17;24.50;;;13.90;;
781;SDS011;374;52.568;13.402;2022-12-11T03:17:26;23.13;;;14.17;;
781;SDS011;374;52.568;13.402;2022-12-11T03:19:38;22.10;;;13.30;;
781;SDS011;374;52.568;13.402;2022-12-11T03:22:30;26.33;;;13.57;;
781;SDS011;374;52.568;13.402;2022-12-11T03:24:59;24.37;;;13.20;;
781;SDS011;374;52.568;13.402;2022-12-11T03:27:46;22.33;;;13.27;;
781;SDS011;374;52.568;13.402;2022-12-11T03:30:21;19.03;;;11.83;;
781;SDS011;374;52.568;13.402;2022-12-11T03:32:49;17.83;;;11.80;;
781;SDS011;374;52.568;13.402;2022-12-11T03:38:03;25.47;;;12.37;;
781;SDS011;374;52.568;13.402;2022-12-11T03:40:31;22.90;;;14.20;;
781;SDS011;374;52.568;13.402;2022-12-11T03:42:59;21.33;;;13.63;;
781;SDS011;374;52.568;13.402;2022-12-11T03:45:25;20.60;;;12.73;;
781;SDS011;374;52.568;13.402;2022-12-11T03:47:53;21.77;;;13.30;;
781;SDS011;374;52.568;13.402;2022-12-11T03:50:21;26.33;;;15.47;;
781;SDS011;374;52.568;13.402;2022-12-11T03:52:51;23.10;;;14.60;;
781;SDS011;374;52.568;13.402;2022-12-11T03:55:17;21.33;;;12.87;;
781;SDS011;374;52.568;13.402;2022-12-11T03:57:45;24.33;;;13.27;;
781;SDS011;374;52.568;13.402;2022-12-11T04:00:12;22.00;;;13.70;;
781;SDS011;374;52.568;13.402;2022-12-11T04:02:40;20.83;;;13.10;;
781;SDS011;374;52.568;13.402;2022-12-11T04:05:06;21.30;;;12.90;;
781;SDS011;374;52.568;13.402;2022-12-11T04:07:32;22.20;;;13.13;;
781;SDS011;374;52.568;13.402;2022-12-11T04:09:58;23.70;;;14.23;;
781;SDS011;374;52.568;13.402;2022-12-11T04:12:24;27.73;;;14.43;;
781;SDS011;374;52.568;13.402;2022-12-11T04:14:49;20.87;;;14.43;;
781;SDS011;374;52.568;13.402;2022-12-11T04:17:28;19.83;;;12.87;;
781;SDS011;374;52.568;13.402;2022-12-11T04:20:15;19.57;;;13.47;;
781;SDS011;374;52.568;13.402;2022-12-11T04:23:02;19.40;;;13.00;;
781;SDS011;374;52.568;13.402;2022-12-11T04:25:47;23.37;;;12.70;;
781;SDS011;374;52.568;13.402;2022-12-11T04:28:13;26.57;;;13.50;;
781;SDS011;374;52.568;13.402;2022-12-11T04:30:39;22.70;;;13.20;;
781;SDS011;374;52.568;13.402;2022-12-11T04:33:04;19.43;;;13.90;;
781;SDS011;374;52.568;13.402;2022-12-11T04:35:30;22.50;;;13.37;;
781;SDS011;374;52.568;13.402;2022-12-11T04:37:55;21.90;;;13.80;;
781;SDS011;374;52.568;13.402;2022-12-11T04:40:21;22.57;;;14.47;;
781;SDS011;374;52.568;13.402;2022-12-11T04:42:47;22.03;;;15.27;;
781;SDS011;374;52.568;13.402;2022-12-11T04:45:12;18.73;;;13.33;;
781;SDS011;374;52.568;13.402;2022-12-11T04:47:39;24.00;;;12.97;;
781;SDS011;374;52.568;13.402;2022-12-11T04:50:06;21.93;;;12.93;;
781;SDS011;374;52.568;13.402;2022-12-11T04:52:33;23.03;;;13.60;;
781;SDS011;374;52.568;13.402;2022-12-11T04:54:58;19.43;;;13.10;;
781;SDS011;374;52.568;13.402;2022-12-11T04:57:24;18.30;;;13.30;;
781;SDS011;374;52.568;13.402;2022-12-11T04:59:49;20.97;;;14.13;;
781;SDS011;374;52.568;13.402;2022-12-11T05:02:15;20.73;;;13.47;;
781;SDS011;374;52.568;13.402;2022-12-11T05:04:41;24.87;;;13.10;;
781;SDS011;374;52.568;13.402;2022-12-11T05:07:07;22.77;;;14.17;;
781;SDS011;374;52.568;13.402;2022-12-11T05:09:33;22.40;;;14.10;;
781;SDS011;374;52.568;13.402;2022-12-11T05:11:59;21.10;;;13.40;;
781;SDS011;374;52.568;13.402;2022-12-11T05:14:24;19.70;;;12.33;;
781;SDS011;374;52.568;13.402;2022-12-11T05:16:51;19.00;;;12.57;;
781;SDS011;374;52.568;13.402;2022-12-11T05:19:17;23.07;;;14.10;;
781;SDS011;374;52.568;13.402;2022-12-11T05:21:42;17.17;;;12.23;;
781;SDS011;374;52.568;13.402;2022-12-11T05:24:08;28.37;;;15.47;;
781;SDS011;374;52.568;13.402;2022-12-11T05:26:33;25.43;;;14.53;;
781;SDS011;374;52.568;13.402;2022-12-11T05:28:59;25.90;;;15.00;;
781;SDS011;374;52.568;13.402;2022-12-11T05:31:25;23.70;;;15.40;;
781;SDS011;374;52.568;13.402;2022-12-11T05:33:52;26.20;;;16.47;;
781;SDS011;374;52.568;13.402;2022-12-11T05:38:48;31.90;;;16.00;;
781;SDS011;374;52.568;13.402;2022-12-11T05:41:15;28.53;;;16.63;;
781;SDS011;374;52.568;13.402;2022-12-11T05:43:42;30.30;;;16.27;;
781;SDS011;374;52.568;13.402;2022-12-11T05:46:10;28.33;;;15.70;;
781;SDS011;374;52.568;13.402;2022-12-11T05:48:40;24.63;;;16.37;;
781;SDS011;374;52.568;13.402;2022-12-11T05:51:07;24.13;;;15.20;;
781;SDS011;374;52.568;13.402;2022-12-11T05:53:34;23.40;;;14.83;;
781;SDS011;374;52.568;13.402;2022-12-11T05:56:09;20.70;;;13.37;;
781;SDS011;374;52.568;13.402;2022-12-11T05:58:36;17.90;;;11.97;;
781;SDS011;374;52.568;13.402;2022-12-11T06:01:06;18.77;;;12.40;;
781;SDS011;374;52.568;13.402;2022-12-11T06:03:37;18.80;;;13.30;;
781;SDS011;374;52.568;13.402;2022-12-11T06:06:03;18.27;;;12.73;;
781;SDS011;374;52.568;13.402;2022-12-11T06:08:29;18.50;;;12.30;;
781;SDS011;374;52.568;13.402;2022-12-11T06:10:55;20.87;;;13.23;;
781;SDS011;374;52.568;13.402;2022-12-11T06:13:21;16.07;;;11.40;;
781;SDS011;374;52.568;13.402;2022-12-11T06:15:47;23.53;;;12.70;;
781;SDS011;374;52.568;13.402;2022-12-11T06:18:13;21.10;;;12.67;;
781;SDS011;374;52.568;13.402;2022-12-11T06:20:38;19.10;;;12.23;;
781;SDS011;374;52.568;13.402;2022-12-11T06:23:04;20.73;;;11.60;;
781;SDS011;374;52.568;13.402;2022-12-11T06:28:52;18.53;;;12.20;;
781;SDS011;374;52.568;13.402;2022-12-11T06:31:17;16.10;;;11.93;;
781;SDS011;374;52.568;13.402;2022-12-11T06:33:43;18.20;;;12.00;;
781;SDS011;374;52.568;13.402;2022-12-11T06:36:10;21.43;;;12.83;;
781;SDS011;374;52.568;13.402;2022-12-11T06:38:40;16.77;;;11.73;;
781;SDS011;374;52.568;13.402;2022-12-11T06:41:07;16.00;;;11.07;;
781;SDS011;374;52.568;13.402;2022-12-11T06:43:33;17.50;;;11.33;;
781;SDS011;374;52.568;13.402;2022-12-11T06:46:08;14.07;;;10.10;;
781;SDS011;374;52.568;13.402;2022-12-11T06:48:35;13.27;;;10.30;;
781;SDS011;374;52.568;13.402;2022-12-11T06:51:08;14.57;;;11.00;;
781;SDS011;374;52.568;13.402;2022-12-11T06:53:36;16.77;;;11.33;;
781;SDS011;374;52.568;13.402;2022-12-11T06:56:03;13.67;;;10.60;;
781;SDS011;374;52.568;13.402;2022-12-11T06:58:30;18.70;;;10.97;;
781;SDS011;374;52.568;13.402;2022-12-11T07:00:58;18.07;;;11.80;;
781;SDS011;374;52.568;13.402;2022-12-11T07:03:23;18.73;;;12.33;;
781;SDS011;374;52.568;13.402;2022-12-11T07:05:49;19.03;;;11.43;;
781;SDS011;374;52.568;13.402;2022-12-11T07:08:15;13.00;;;9.90;;
781;SDS011;374;52.568;13.402;2022-12-11T07:10:41;15.83;;;10.83;;
781;SDS011;374;52.568;13.402;2022-12-11T07:13:06;15.53;;;10.40;;
781;SDS011;374;52.568;13.402;2022-12-11T07:15:32;21.83;;;11.13;;
781;SDS011;374;52.568;13.402;2022-12-11T07:17:57;19.73;;;9.27;;
781;SDS011;374;52.568;13.402;2022-12-11T07:20:23;18.27;;;11.03;;
781;SDS011;374;52.568;13.402;2022-12-11T07:22:48;12.67;;;9.90;;
781;SDS011;374;52.568;13.402;2022-12-11T07:25:14;14.50;;;9.63;;
781;SDS011;374;52.568;13.402;2022-12-11T07:27:40;13.07;;;8.70;;
781;SDS011;374;52.568;13.402;2022-12-11T07:30:06;19.93;;;12.40;;
781;SDS011;374;52.568;13.402;2022-12-11T07:32:32;18.47;;;11.50;;
781;SDS011;374;52.568;13.402;2022-12-11T07:34:58;14.13;;;10.33;;
781;SDS011;374;52.568;13.402;2022-12-11T07:37:23;16.50;;;10.47;;
781;SDS011;374;52.568;13.402;2022-12-11T07:39:49;12.50;;;9.10;;
781;SDS011;374;52.568;13.402;2022-12-11T07:42:15;15.83;;;9.87;;
781;SDS011;374;52.568;13.402;2022-12-11T07:44:40;12.57;;;9.30;;
781;SDS011;374;52.568;13.402;2022-12-11T07:47:06;16.27;;;9.90;;
781;SDS011;374;52.568;13.402;2022-12-11T07:49:32;12.93;;;9.10;;
781;SDS011;374;52.568;13.402;2022-12-11T07:51:57;15.10;;;9.63;;
781;SDS011;374;52.568;13.402;2022-12-11T07:54:23;14.73;;;9.47;;
781;SDS011;374;52.568;13.402;2022-12-11T07:56:48;13.37;;;9.00;;
781;SDS011;374;52.568;13.402;2022-12-11T07:59:14;12.67;;;8.80;;
781;SDS011;374;52.568;13.402;2022-12-11T08:01:42;14.97;;;9.67;;
781;SDS011;374;52.568;13.402;2022-12-11T08:04:10;13.70;;;9.70;;
781;SDS011;374;52.568;13.402;2022-12-11T08:06:39;17.63;;;10.63;;
781;SDS011;374;52.568;13.402;2022-12-11T08:09:08;13.83;;;9.40;;
781;SDS011;374;52.568;13.402;2022-12-11T08:11:35;13.00;;;9.00;;
781;SDS011;374;52.568;13.402;2022-12-11T08:14:02;13.83;;;9.60;;
781;SDS011;374;52.568;13.402;2022-12-11T08:16:27;12.10;;;8.77;;
781;SDS011;374;52.568;13.402;2022-12-11T08:18:56;14.33;;;8.97;;
781;SDS011;374;52.568;13.402;2022-12-11T08:21:23;31.20;;;16.67;;
781;SDS011;374;52.568;13.402;2022-12-11T08:23:51;35.23;;;20.23;;
781;SDS011;374;52.568;13.402;2022-12-11T08:26:19;15.90;;;11.37;;
781;SDS011;374;52.568;13.402;2022-12-11T08:28:46;14.70;;;9.47;;
781;SDS011;374;52.568;13.402;2022-12-11T08:31:12;15.40;;;9.40;;
781;SDS011;374;52.568;13.402;2022-12-11T08:33:39;16.60;;;10.13;;
781;SDS011;374;52.568;13.402;2022-12-11T08:36:06;16.50;;;10.70;;
781;SDS011;374;52.568;13.402;2022-12-11T08:38:33;17.37;;;10.37;;
781;SDS011;374;52.568;13.402;2022-12-11T08:43:38;13.10;;;9.80;;
781;SDS011;374;52.568;13.402;2022-12-11T08:46:04;14.53;;;10.60;;
781;SDS011;374;52.568;13.402;2022-12-11T08:48:31;12.87;;;8.27;;
781;SDS011;374;52.568;13.402;2022-12-11T08:50:58;14.37;;;9.57;;
781;SDS011;374;52.568;13.402;2022-12-11T08:53:28;15.53;;;9.57;;
781;SDS011;374;52.568;13.402;2022-12-11T08:56:05;13.13;;;8.47;;
781;SDS011;374;52.568;13.402;2022-12-11T08:58:36;14.30;;;9.97;;
781;SDS011;374;52.568;13.402;2022-12-11T09:01:09;16.40;;;10.50;;
781;SDS011;374;52.568;13.402;2022-12-11T09:03:37;13.93;;;9.77;;
781;SDS011;374;52.568;13.402;2022-12-11T09:06:09;14.03;;;9.20;;
781;SDS011;374;52.568;13.402;2022-12-11T09:08:39;15.07;;;9.53;;
781;SDS011;374;52.568;13.402;2022-12-11T09:11:07;12.87;;;10.30;;
781;SDS011;374;52.568;13.402;2022-12-11T09:13:34;14.40;;;10.20;;
781;SDS011;374;52.568;13.402;2022-12-11T09:16:02;16.30;;;10.00;;
781;SDS011;374;52.568;13.402;2022-12-11T09:18:29;13.90;;;8.70;;
781;SDS011;374;52.568;13.402;2022-12-11T09:20:58;14.20;;;9.10;;
781;SDS011;374;52.568;13.402;2022-12-11T09:23:27;12.37;;;8.80;;
781;SDS011;374;52.568;13.402;2022-12-11T09:25:53;13.77;;;8.83;;
781;SDS011;374;52.568;13.402;2022-12-11T09:28:22;16.03;;;9.90;;
781;SDS011;374;52.568;13.402;2022-12-11T09:30:50;13.97;;;9.53;;
781;SDS011;374;52.568;13.402;2022-12-11T09:33:16;14.17;;;10.00;;
781;SDS011;374;52.568;13.402;2022-12-11T09:35:44;14.73;;;9.40;;
781;SDS011;374;52.568;13.402;2022-12-11T09:38:20;13.47;;;8.87;;
781;SDS011;374;52.568;13.402;2022-12-11T09:40:48;17.97;;;9.17;;
781;SDS011;374;52.568;13.402;2022-12-11T09:45:55;16.17;;;11.37;;
781;SDS011;374;52.568;13.402;2022-12-11T09:48:22;11.53;;;9.87;;
781;SDS011;374;52.568;13.402;2022-12-11T09:50:50;16.90;;;8.73;;
781;SDS011;374;52.568;13.402;2022-12-11T09:53:26;15.67;;;10.47;;
781;SDS011;374;52.568;13.402;2022-12-11T09:56:15;14.67;;;8.90;;
781;SDS011;374;52.568;13.402;2022-12-11T09:59:01;12.67;;;9.50;;
781;SDS011;374;52.568;13.402;2022-12-11T10:01:52;15.93;;;10.07;;
781;SDS011;374;52.568;13.402;2022-12-11T10:07:44;17.20;;;11.67;;
781;SDS011;374;52.568;13.402;2022-12-11T10:18:54;17.73;;;10.50;;
781;SDS011;374;52.568;13.402;2022-12-11T10:21:41;16.23;;;10.40;;
781;SDS011;374;52.568;13.402;2022-12-11T10:24:15;12.00;;;9.00;;
781;SDS011;374;52.568;13.402;2022-12-11T10:27:13;15.17;;;9.10;;
781;SDS011;374;52.568;13.402;2022-12-11T10:29:45;14.27;;;9.77;;
781;SDS011;374;52.568;13.402;2022-12-11T10:32:38;16.00;;;10.20;;
781;SDS011;374;52.568;13.402;2022-12-11T10:35:30;17.80;;;10.57;;
781;SDS011;374;52.568;13.402;2022-12-11T10:38:27;14.90;;;9.40;;
781;SDS011;374;52.568;13.402;2022-12-11T10:41:16;15.43;;;10.37;;
781;SDS011;374;52.568;13.402;2022-12-11T10:43:44;13.53;;;10.23;;
781;SDS011;374;52.568;13.402;2022-12-11T10:46:35;15.80;;;9.30;;
781;SDS011;374;52.568;13.402;2022-12-11T10:49:01;39.53;;;21.20;;
781;SDS011;374;52.568;13.402;2022-12-11T10:53:57;24.17;;;16.13;;
781;SDS011;374;52.568;13.402;2022-12-11T10:56:44;13.43;;;9.67;;
781;SDS011;374;52.568;13.402;2022-12-11T11:02:06;14.17;;;9.57;;
781;SDS011;374;52.568;13.402;2022-12-11T11:04:52;14.90;;;9.83;;
781;SDS011;374;52.568;13.402;2022-12-11T11:07:20;15.83;;;9.40;;
781;SDS011;374;52.568;13.402;2022-12-11T11:10:02;16.97;;;10.47;;
781;SDS011;374;52.568;13.402;2022-12-11T11:12:36;16.07;;;10.53;;
781;SDS011;374;52.568;13.402;2022-12-11T11:15:13;16.53;;;10.40;;
781;SDS011;374;52.568;13.402;2022-12-11T11:17:55;15.17;;;9.70;;
781;SDS011;374;52.568;13.402;2022-12-11T11:20:25;15.90;;;8.60;;
781;SDS011;374;52.568;13.402;2022-12-11T11:22:55;15.33;;;10.80;;
781;SDS011;374;52.568;13.402;2022-12-11T11:25:26;13.70;;;9.50;;
781;SDS011;374;52.568;13.402;2022-12-11T11:27:57;14.67;;;10.50;;
781;SDS011;374;52.568;13.402;2022-12-11T11:30:58;13.83;;;9.77;;
781;SDS011;374;52.568;13.402;2022-12-11T11:33:30;13.73;;;9.93;;
781;SDS011;374;52.568;13.402;2022-12-11T11:36:02;17.00;;;9.30;;
781;SDS011;374;52.568;13.402;2022-12-11T11:38:34;16.47;;;10.17;;
781;SDS011;374;52.568;13.402;2022-12-11T11:41:16;13.73;;;10.30;;
781;SDS011;374;52.568;13.402;2022-12-11T11:43:50;14.47;;;9.03;;
781;SDS011;374;52.568;13.402;2022-12-11T11:46:41;12.70;;;9.07;;
781;SDS011;374;52.568;13.402;2022-12-11T11:51:56;13.70;;;10.07;;
781;SDS011;374;52.568;13.402;2022-12-11T11:54:32;18.90;;;10.93;;
781;SDS011;374;52.568;13.402;2022-12-11T11:57:02;16.70;;;9.73;;
781;SDS011;374;52.568;13.402;2022-12-11T11:59:38;19.33;;;10.43;;
781;SDS011;374;52.568;13.402;2022-12-11T12:02:15;14.93;;;10.00;;
781;SDS011;374;52.568;13.402;2022-12-11T12:04:43;15.33;;;10.03;;
781;SDS011;374;52.568;13.402;2022-12-11T12:10:02;11.93;;;9.23;;
781;SDS011;374;52.568;13.402;2022-12-11T12:13:02;16.03;;;10.00;;
781;SDS011;374;52.568;13.402;2022-12-11T12:15:42;17.23;;;10.70;;
781;SDS011;374;52.568;13.402;2022-12-11T12:18:52;14.03;;;10.70;;
781;SDS011;374;52.568;13.402;2022-12-11T12:21:37;14.40;;;10.20;;
781;SDS011;374;52.568;13.402;2022-12-11T12:27:35;15.40;;;10.50;;
781;SDS011;374;52.568;13.402;2022-12-11T12:30:14;15.07;;;10.37;;
781;SDS011;374;52.568;13.402;2022-12-11T12:43:59;18.50;;;12.20;;
781;SDS011;374;52.568;13.402;2022-12-11T12:46:55;17.00;;;9.83;;
781;SDS011;374;52.568;13.402;2022-12-11T12:49:42;15.70;;;10.57;;
781;SDS011;374;52.568;13.402;2022-12-11T12:52:14;16.30;;;11.67;;
781;SDS011;374;52.568;13.402;2022-12-11T12:55:15;19.03;;;11.70;;
781;SDS011;374;52.568;13.402;2022-12-11T12:57:55;15.03;;;10.07;;
781;SDS011;374;52.568;13.402;2022-12-11T13:00:34;13.60;;;9.93;;
781;SDS011;374;52.568;13.402;2022-12-11T13:03:01;16.80;;;11.50;;
781;SDS011;374;52.568;13.402;2022-12-11T13:05:39;17.47;;;10.63;;
781;SDS011;374;52.568;13.402;2022-12-11T13:08:07;16.30;;;10.27;;
781;SDS011;374;52.568;13.402;2022-12-11T13:10:38;18.97;;;10.77;;
781;SDS011;374;52.568;13.402;2022-12-11T13:13:24;14.10;;;9.20;;
781;SDS011;374;52.568;13.402;2022-12-11T13:16:04;14.60;;;10.63;;
781;SDS011;374;52.568;13.402;2022-12-11T13:18:33;17.33;;;10.83;;
781;SDS011;374;52.568;13.402;2022-12-11T13:21:23;19.10;;;11.03;;
781;SDS011;374;52.568;13.402;2022-12-11T13:24:12;18.40;;;11.70;;
781;SDS011;374;52.568;13.402;2022-12-11T13:26:45;16.60;;;10.50;;
781;SDS011;374;52.568;13.402;2022-12-11T13:29:31;20.73;;;13.10;;
781;SDS011;374;52.568;13.402;2022-12-11T13:35:42;21.20;;;12.47;;
781;SDS011;374;52.568;13.402;2022-12-11T13:38:17;17.67;;;12.07;;
781;SDS011;374;52.568;13.402;2022-12-11T14:04:40;18.67;;;10.37;;
781;SDS011;374;52.568;13.402;2022-12-11T14:07:25;14.67;;;9.73;;
781;SDS011;374;52.568;13.402;2022-12-11T14:10:54;17.27;;;11.20;;
781;SDS011;374;52.568;13.402;2022-12-11T14:20:22;16.20;;;11.37;;
781;SDS011;374;52.568;13.402;2022-12-11T14:22:49;17.10;;;11.20;;
781;SDS011;374;52.568;13.402;2022-12-11T14:25:23;20.70;;;13.30;;
781;SDS011;374;52.568;13.402;2022-12-11T14:27:51;20.33;;;12.90;;
781;SDS011;374;52.568;13.402;2022-12-11T14:30:22;18.47;;;12.60;;
781;SDS011;374;52.568;13.402;2022-12-11T14:32:56;21.53;;;12.30;;
781;SDS011;374;52.568;13.402;2022-12-11T14:37:51;20.67;;;12.43;;
781;SDS011;374;52.568;13.402;2022-12-11T14:40:22;16.43;;;11.90;;
781;SDS011;374;52.568;13.402;2022-12-11T14:42:54;19.77;;;12.30;;
781;SDS011;374;52.568;13.402;2022-12-11T14:45:29;18.27;;;12.80;;
781;SDS011;374;52.568;13.402;2022-12-11T14:48:25;16.30;;;11.40;;
781;SDS011;374;52.568;13.402;2022-12-11T14:50:58;17.97;;;12.20;;
781;SDS011;374;52.568;13.402;2022-12-11T14:53:30;20.30;;;11.90;;
781;SDS011;374;52.568;13.402;2022-12-11T14:56:00;16.77;;;10.50;;
781;SDS011;374;52.568;13.402;2022-12-11T14:58:28;18.90;;;12.80;;
781;SDS011;374;52.568;13.402;2022-12-11T15:00:59;16.43;;;10.80;;
781;SDS011;374;52.568;13.402;2022-12-11T15:03:44;16.50;;;11.83;;
781;SDS011;374;52.568;13.402;2022-12-11T15:06:23;19.53;;;11.77;;
781;SDS011;374;52.568;13.402;2022-12-11T15:08:56;19.33;;;11.77;;
781;SDS011;374;52.568;13.402;2022-12-11T15:11:33;20.57;;;13.03;;
781;SDS011;374;52.568;13.402;2022-12-11T15:14:01;17.33;;;11.20;;
781;SDS011;374;52.568;13.402;2022-12-11T15:16:31;17.73;;;12.50;;
781;SDS011;374;52.568;13.402;2022-12-11T15:18:58;17.87;;;12.20;;
781;SDS011;374;52.568;13.402;2022-12-11T15:21:31;20.70;;;14.73;;
781;SDS011;374;52.568;13.402;2022-12-11T15:23:59;20.73;;;12.30;;
781;SDS011;374;52.568;13.402;2022-12-11T15:26:46;19.40;;;12.67;;
781;SDS011;374;52.568;13.402;2022-12-11T15:34:34;19.70;;;13.53;;
781;SDS011;374;52.568;13.402;2022-12-11T15:37:20;16.27;;;10.40;;
781;SDS011;374;52.568;13.402;2022-12-11T15:40:04;14.80;;;9.63;;
781;SDS011;374;52.568;13.402;2022-12-11T15:42:40;21.50;;;12.60;;
781;SDS011;374;52.568;13.402;2022-12-11T15:45:07;17.87;;;11.60;;
781;SDS011;374;52.568;13.402;2022-12-11T15:47:39;19.27;;;10.17;;
781;SDS011;374;52.568;13.402;2022-12-11T15:50:28;16.33;;;11.40;;
781;SDS011;374;52.568;13.402;2022-12-11T15:52:53;16.70;;;10.77;;
781;SDS011;374;52.568;13.402;2022-12-11T15:55:21;16.60;;;11.67;;
781;SDS011;374;52.568;13.402;2022-12-11T15:57:51;19.60;;;12.23;;
781;SDS011;374;52.568;13.402;2022-12-11T16:00:27;18.40;;;12.10;;
781;SDS011;374;52.568;13.402;2022-12-11T16:02:54;20.00;;;13.20;;
781;SDS011;374;52.568;13.402;2022-12-11T16:05:20;20.20;;;12.97;;
781;SDS011;374;52.568;13.402;2022-12-11T16:10:40;17.70;;;12.57;;
781;SDS011;374;52.568;13.402;2022-12-11T16:13:10;17.80;;;11.77;;
781;SDS011;374;52.568;13.402;2022-12-11T16:15:37;17.43;;;12.00;;
781;SDS011;374;52.568;13.402;2022-12-11T16:18:05;15.03;;;11.30;;
781;SDS011;374;52.568;13.402;2022-12-11T16:20:36;16.13;;;11.00;;
781;SDS011;374;52.568;13.402;2022-12-11T16:23:03;17.27;;;12.20;;
781;SDS011;374;52.568;13.402;2022-12-11T16:29:01;19.30;;;12.77;;
781;SDS011;374;52.568;13.402;2022-12-11T16:31:38;18.00;;;13.27;;
781;SDS011;374;52.568;13.402;2022-12-11T16:34:03;22.97;;;11.90;;
781;SDS011;374;52.568;13.402;2022-12-11T16:36:29;18.27;;;12.40;;
781;SDS011;374;52.568;13.402;2022-12-11T16:41:58;21.30;;;13.00;;
781;SDS011;374;52.568;13.402;2022-12-11T16:47:46;18.57;;;12.73;;
781;SDS011;374;52.568;13.402;2022-12-11T16:50:16;20.97;;;13.87;;
781;SDS011;374;52.568;13.402;2022-12-11T16:52:53;41.93;;;23.30;;
781;SDS011;374;52.568;13.402;2022-12-11T16:55:19;70.20;;;38.10;;
781;SDS011;374;52.568;13.402;2022-12-11T16:57:47;39.20;;;25.60;;
781;SDS011;374;52.568;13.402;2022-12-11T17:00:25;22.73;;;13.70;;
781;SDS011;374;52.568;13.402;2022-12-11T17:02:53;19.60;;;12.20;;
781;SDS011;374;52.568;13.402;2022-12-11T17:05:19;22.60;;;13.93;;
781;SDS011;374;52.568;13.402;2022-12-11T17:07:44;17.83;;;13.10;;
781;SDS011;374;52.568;13.402;2022-12-11T17:10:10;18.67;;;12.43;;
781;SDS011;374;52.568;13.402;2022-12-11T17:12:36;17.27;;;12.00;;
781;SDS011;374;52.568;13.402;2022-12-11T17:15:20;17.73;;;12.93;;
781;SDS011;374;52.568;13.402;2022-12-11T17:18:14;19.50;;;12.63;;
781;SDS011;374;52.568;13.402;2022-12-11T17:20:40;17.37;;;12.90;;
781;SDS011;374;52.568;13.402;2022-12-11T17:23:10;18.03;;;12.87;;
781;SDS011;374;52.568;13.402;2022-12-11T17:25:41;19.20;;;11.90;;
781;SDS011;374;52.568;13.402;2022-12-11T17:28:09;17.97;;;12.90;;
781;SDS011;374;52.568;13.402;2022-12-11T17:30:41;20.83;;;13.13;;
781;SDS011;374;52.568;13.402;2022-12-11T17:33:08;22.57;;;13.60;;
781;SDS011;374;52.568;13.402;2022-12-11T17:35:34;20.43;;;12.10;;
781;SDS011;374;52.568;13.402;2022-12-11T17:38:00;19.07;;;12.90;;